Time;durP1;ratioP1;P1;durP2;ratioP2;P2;SDS_P1;SDS_P2;PMS_P1;PMS_P2;Temp;Humidity;BMP_temperature;BMP_pressure;BME280_temperature;BME280_humidity;BME280_pressure;Samples;Min_cycle;Max_cycle;Signal;HPM_P1;HPM_P2
2022/03/28 00:00:50;;;;;;;275.37;264.47;;;5.50;99.90;;;;;;5019394;28;20453;-84
2022/03/28 00:03:17;;;;;;;318.77;305.13;;;5.50;99.90;;;;;;5018620;28;20491;-82
2022/03/28 00:05:44;;;;;;;301.97;289.73;;;5.40;99.90;;;;;;5018534;28;20461;-83
2022/03/28 00:08:11;;;;;;;235.23;225.90;;;5.40;99.90;;;;;;5018220;28;20458;-82
2022/03/28 00:10:37;;;;;;;254.67;244.67;;;5.40;99.90;;;;;;5018255;28;20464;-82
2022/03/28 00:13:04;;;;;;;280.67;269.83;;;5.40;99.90;;;;;;5018273;28;20990;-82
2022/03/28 00:15:31;;;;;;;282.63;271.03;;;5.40;99.90;;;;;;5018912;28;20455;-82
2022/03/28 00:17:59;;;;;;;252.80;242.37;;;5.40;99.90;;;;;;5018366;28;20461;-82
2022/03/28 00:20:26;;;;;;;261.70;251.00;;;5.40;99.90;;;;;;5018727;28;20977;-83
2022/03/28 00:22:53;;;;;;;298.70;286.57;;;5.40;99.90;;;;;;5018207;28;21031;-82
2022/03/28 00:25:20;;;;;;;357.87;341.90;;;5.20;99.90;;;;;;5018575;28;20481;-83
2022/03/28 00:27:47;;;;;;;311.13;298.33;;;5.20;99.90;;;;;;5018548;28;20827;-83
2022/03/28 00:30:14;;;;;;;268.57;257.57;;;5.30;99.90;;;;;;5018159;28;20456;-82
2022/03/28 00:32:40;;;;;;;255.83;245.40;;;5.20;99.90;;;;;;5017830;28;20560;-82
2022/03/28 00:35:09;;;;;;;259.83;249.63;;;5.20;99.90;;;;;;5018177;28;20453;-82
2022/03/28 00:37:37;;;;;;;306.67;294.37;;;5.20;99.90;;;;;;5017620;28;20950;-82
2022/03/28 00:40:05;;;;;;;312.03;298.93;;;5.20;99.90;;;;;;5017945;28;20511;-82
2022/03/28 00:42:32;;;;;;;386.60;370.30;;;5.20;99.90;;;;;;5018236;28;20477;-82
2022/03/28 00:44:59;;;;;;;396.43;379.13;;;5.10;99.90;;;;;;5018517;28;20481;-84
2022/03/28 00:47:25;;;;;;;382.93;366.13;;;5.00;99.90;;;;;;5017778;28;20453;-85
2022/03/28 00:49:52;;;;;;;378.47;362.77;;;5.00;99.90;;;;;;5017965;28;20641;-84
2022/03/28 00:52:20;;;;;;;341.30;326.90;;;5.10;99.90;;;;;;5017805;28;20552;-84
2022/03/28 00:54:47;;;;;;;398.43;381.07;;;5.10;99.90;;;;;;5018659;28;20453;-85
2022/03/28 00:57:14;;;;;;;377.73;361.47;;;5.10;99.90;;;;;;5018011;28;20456;-84
2022/03/28 00:59:42;;;;;;;430.17;410.30;;;5.00;99.90;;;;;;5018220;28;20453;-84
2022/03/28 01:02:09;;;;;;;433.17;411.77;;;5.00;99.90;;;;;;5017826;28;20768;-85
2022/03/28 01:04:37;;;;;;;467.00;444.70;;;5.00;99.90;;;;;;5018175;28;20480;-84
2022/03/28 01:07:05;;;;;;;473.77;450.73;;;4.80;99.90;;;;;;5017904;28;20465;-84
2022/03/28 01:09:33;;;;;;;468.60;446.17;;;4.90;99.90;;;;;;5018126;28;20456;-83
2022/03/28 01:12:02;;;;;;;561.23;531.37;;;4.80;99.90;;;;;;5016660;28;20457;-84
2022/03/28 01:14:29;;;;;;;563.73;534.17;;;4.90;99.90;;;;;;5018100;28;20503;-84
2022/03/28 01:19:40;;;;;;;561.43;531.60;;;4.70;99.90;;;;;;4998509;28;20441;-84
2022/03/28 01:22:08;;;;;;;570.77;540.17;;;4.70;99.90;;;;;;4998623;28;20843;-84
2022/03/28 01:24:35;;;;;;;550.80;522.73;;;4.80;99.90;;;;;;5001678;28;20481;-84
2022/03/28 01:27:04;;;;;;;529.40;503.00;;;4.90;99.90;;;;;;5014692;28;20457;-84
2022/03/28 01:29:30;;;;;;;494.43;470.93;;;4.70;99.90;;;;;;5021201;28;20459;-83
2022/03/28 01:31:57;;;;;;;462.53;441.80;;;4.70;99.90;;;;;;5020668;28;20460;-84
2022/03/28 01:34:24;;;;;;;496.27;472.50;;;4.70;99.90;;;;;;5021633;28;20453;-84
2022/03/28 01:36:50;;;;;;;613.93;580.83;;;4.70;99.90;;;;;;5021114;28;20460;-84
2022/03/28 01:39:19;;;;;;;508.97;483.87;;;4.80;99.90;;;;;;5020824;28;20949;-84
2022/03/28 01:41:47;;;;;;;504.10;479.90;;;4.60;99.90;;;;;;5021407;28;20952;-84
2022/03/28 01:44:14;;;;;;;481.07;458.83;;;4.60;99.90;;;;;;5020499;28;20472;-84
2022/03/28 01:46:41;;;;;;;508.03;483.93;;;4.70;99.90;;;;;;5020995;28;20453;-84
2022/03/28 01:49:08;;;;;;;536.83;510.10;;;4.50;99.90;;;;;;5020685;28;20877;-84
2022/03/28 01:51:35;;;;;;;537.83;511.27;;;4.50;99.90;;;;;;5021596;28;20825;-84
2022/03/28 01:54:02;;;;;;;501.60;477.53;;;4.40;99.90;;;;;;5020638;28;20499;-84
2022/03/28 01:56:30;;;;;;;535.57;508.03;;;4.40;99.90;;;;;;5021167;28;20464;-84
2022/03/28 01:58:57;;;;;;;585.47;553.50;;;4.40;99.90;;;;;;5020456;28;20971;-84
2022/03/28 02:01:23;;;;;;;642.77;603.93;;;4.60;99.90;;;;;;5021290;28;20453;-85
2022/03/28 02:03:50;;;;;;;668.17;628.00;;;4.60;99.90;;;;;;5020227;28;20787;-85
2022/03/28 02:06:17;;;;;;;679.77;637.27;;;4.50;99.90;;;;;;5021050;28;20477;-84
2022/03/28 02:08:43;;;;;;;648.27;610.77;;;4.50;99.90;;;;;;5020472;28;20453;-84
2022/03/28 02:11:10;;;;;;;617.70;582.00;;;4.50;99.90;;;;;;5021213;28;20456;-84
2022/03/28 02:13:38;;;;;;;613.83;578.97;;;4.60;99.90;;;;;;5020439;28;20477;-84
2022/03/28 02:16:06;;;;;;;622.23;586.23;;;4.50;99.90;;;;;;5020701;28;20453;-84
2022/03/28 02:18:33;;;;;;;672.37;631.67;;;4.50;99.90;;;;;;5019970;28;21091;-83
2022/03/28 02:21:00;;;;;;;674.47;633.77;;;4.50;99.90;;;;;;5020609;28;20457;-84
2022/03/28 02:23:27;;;;;;;651.50;613.30;;;4.60;99.90;;;;;;5020371;28;20469;-85
2022/03/28 02:25:54;;;;;;;684.03;642.20;;;4.50;99.90;;;;;;5021261;28;20568;-84
2022/03/28 02:28:21;;;;;;;688.30;645.60;;;4.60;99.90;;;;;;5019515;28;20453;-84
2022/03/28 02:30:49;;;;;;;665.70;626.03;;;4.60;99.90;;;;;;5019944;28;20468;-84
2022/03/28 02:33:16;;;;;;;637.30;601.10;;;4.50;99.90;;;;;;5019843;28;20474;-85
2022/03/28 02:35:43;;;;;;;464.03;443.13;;;4.50;99.90;;;;;;5019673;28;20449;-84
2022/03/28 02:38:10;;;;;;;380.13;364.93;;;4.40;99.90;;;;;;5019348;28;20449;-85
2022/03/28 02:40:37;;;;;;;420.20;402.03;;;4.20;99.90;;;;;;5019479;28;20460;-84
2022/03/28 02:43:05;;;;;;;464.53;444.53;;;4.10;99.90;;;;;;5020225;28;20531;-84
2022/03/28 02:45:33;;;;;;;533.77;509.47;;;4.10;99.90;;;;;;5018737;28;20843;-84
2022/03/28 02:48:03;;;;;;;580.80;551.93;;;4.10;99.90;;;;;;5019391;28;20453;-84
2022/03/28 02:50:30;;;;;;;623.83;590.50;;;3.90;99.90;;;;;;5019815;28;20457;-84
2022/03/28 02:52:57;;;;;;;684.33;644.23;;;3.90;99.90;;;;;;5019597;28;20551;-84
2022/03/28 02:55:24;;;;;;;681.40;641.30;;;3.90;99.90;;;;;;5019341;28;20453;-84
2022/03/28 02:57:51;;;;;;;644.60;608.27;;;3.90;99.90;;;;;;5019551;28;20457;-84
2022/03/28 03:00:18;;;;;;;608.87;575.93;;;3.90;99.90;;;;;;5019666;28;20880;-85
2022/03/28 03:02:45;;;;;;;608.70;575.70;;;3.80;99.90;;;;;;5019509;28;20535;-85
2022/03/28 03:05:14;;;;;;;774.23;723.97;;;3.70;99.90;;;;;;5019694;28;20484;-84
2022/03/28 03:07:41;;;;;;;807.40;754.93;;;3.60;99.90;;;;;;5019521;28;20453;-84
2022/03/28 03:10:08;;;;;;;816.60;760.63;;;3.70;99.90;;;;;;5020153;28;20465;-84
2022/03/28 03:12:35;;;;;;;840.33;780.93;;;3.70;99.90;;;;;;5019487;28;20824;-84
2022/03/28 03:15:02;;;;;;;820.83;764.00;;;3.70;99.90;;;;;;5019980;28;20457;-85
2022/03/28 03:17:28;;;;;;;827.73;770.73;;;3.70;99.90;;;;;;5018806;28;20461;-84
2022/03/28 03:19:55;;;;;;;819.30;765.00;;;3.70;99.90;;;;;;5018959;28;20457;-84
2022/03/28 03:22:23;;;;;;;812.63;758.80;;;3.80;99.90;;;;;;5018368;28;20485;-85
2022/03/28 03:24:50;;;;;;;821.43;768.07;;;3.70;99.90;;;;;;5019304;28;20480;-85
2022/03/28 03:27:17;;;;;;;852.53;794.07;;;3.70;99.90;;;;;;5018346;28;20462;-84
2022/03/28 03:29:44;;;;;;;847.60;790.10;;;3.80;99.90;;;;;;5019018;28;20460;-84
2022/03/28 03:32:10;;;;;;;846.63;789.30;;;3.80;99.90;;;;;;5018527;28;20477;-84
2022/03/28 03:34:37;;;;;;;839.83;780.43;;;3.80;99.90;;;;;;5019407;28;20453;-84
2022/03/28 03:37:04;;;;;;;856.03;797.30;;;3.60;99.90;;;;;;5018386;28;20460;-85
2022/03/28 03:39:33;;;;;;;876.80;809.87;;;3.70;99.90;;;;;;5019318;28;20457;-86
2022/03/28 03:41:59;;;;;;;872.93;808.73;;;3.80;99.90;;;;;;5008095;28;20456;-86
2022/03/28 03:44:26;;;;;;;882.67;814.57;;;3.90;99.90;;;;;;5017268;28;20453;-83
2022/03/28 03:46:53;;;;;;;868.27;804.37;;;4.00;99.90;;;;;;5016149;28;20457;-84
2022/03/28 03:49:20;;;;;;;855.63;793.00;;;3.90;99.90;;;;;;5016603;28;20480;-84
2022/03/28 03:51:47;;;;;;;859.23;798.83;;;3.80;99.90;;;;;;5018802;28;20464;-84
2022/03/28 03:54:14;;;;;;;855.43;795.90;;;3.80;99.90;;;;;;4999345;28;20470;-84
2022/03/28 03:56:42;;;;;;;838.83;785.67;;;3.80;99.90;;;;;;5010708;28;20453;-83
2022/03/28 03:59:09;;;;;;;854.47;798.60;;;3.70;99.90;;;;;;5017959;28;20465;-85
2022/03/28 04:01:36;;;;;;;858.73;800.20;;;3.60;99.90;;;;;;5019828;28;20453;-86
2022/03/28 04:04:02;;;;;;;853.47;793.37;;;3.60;99.90;;;;;;5017009;28;20481;-83
2022/03/28 04:06:29;;;;;;;889.53;820.87;;;3.60;99.90;;;;;;5018371;28;20473;-83
2022/03/28 04:08:56;;;;;;;885.63;813.13;;;3.60;99.90;;;;;;5016991;28;20454;-83
2022/03/28 04:11:22;;;;;;;874.17;803.03;;;3.70;99.90;;;;;;5018545;28;20445;-84
2022/03/28 04:13:50;;;;;;;855.27;783.27;;;3.80;99.90;;;;;;5022457;28;20989;-84
2022/03/28 04:16:17;;;;;;;870.60;796.30;;;3.70;99.90;;;;;;5027384;28;20453;-84
2022/03/28 04:18:47;;;;;;;859.30;783.60;;;3.80;99.90;;;;;;5019493;28;20463;-86
2022/03/28 04:21:13;;;;;;;836.53;765.10;;;3.80;99.90;;;;;;5017967;28;20452;-85
2022/03/28 04:23:40;;;;;;;834.70;765.10;;;3.80;99.90;;;;;;5015352;28;20470;-84
2022/03/28 04:26:07;;;;;;;820.03;752.87;;;3.90;99.90;;;;;;5000076;28;20485;-84
2022/03/28 04:28:34;;;;;;;822.87;760.53;;;3.80;99.90;;;;;;5018332;28;20453;-84
2022/03/28 04:31:02;;;;;;;811.30;749.37;;;3.80;99.90;;;;;;5018577;28;20461;-83
2022/03/28 04:33:28;;;;;;;812.17;751.10;;;3.70;99.90;;;;;;5017069;28;20480;-85
2022/03/28 04:35:55;;;;;;;811.43;747.87;;;3.60;99.90;;;;;;5019815;28;20956;-85
2022/03/28 04:38:24;;;;;;;812.27;746.67;;;3.50;99.90;;;;;;5020053;28;20449;-85
2022/03/28 04:41:00;;;;;;;810.73;746.40;;;3.60;99.90;;;;;;5018743;28;20453;-86
2022/03/28 04:43:45;;;;;;;818.77;752.17;;;3.60;99.90;;;;;;5018937;28;20476;-84
2022/03/28 04:46:13;;;;;;;823.90;756.70;;;3.50;99.90;;;;;;5017922;28;20576;-83
2022/03/28 04:48:47;;;;;;;827.23;759.33;;;3.50;99.90;;;;;;5019115;28;20452;-84
2022/03/28 04:54:57;;;;;;;832.20;762.70;;;3.50;99.90;;;;;;4941380;29;20472;-84
2022/03/28 04:57:26;;;;;;;840.30;769.70;;;3.60;99.90;;;;;;5000632;28;20461;-84
2022/03/28 04:59:56;;;;;;;836.57;767.60;;;3.60;99.90;;;;;;5002843;28;20477;-84
2022/03/28 05:02:24;;;;;;;843.33;773.33;;;3.50;99.90;;;;;;5048439;23;20489;-80
2022/03/28 05:04:51;;;;;;;825.87;757.23;;;3.60;99.90;;;;;;5040043;28;20983;-81
2022/03/28 05:07:25;;;;;;;825.03;758.93;;;3.60;99.90;;;;;;5032525;28;20480;-81
2022/03/28 05:09:53;;;;;;;824.23;759.17;;;3.60;99.90;;;;;;5029428;28;20893;-80
2022/03/28 05:12:20;;;;;;;834.40;765.10;;;3.50;99.90;;;;;;5029693;28;20453;-80
2022/03/28 05:14:47;;;;;;;840.77;770.90;;;3.50;99.90;;;;;;5043688;28;20470;-81
2022/03/28 05:17:14;;;;;;;841.03;768.33;;;3.60;99.90;;;;;;5052017;28;20813;-81
2022/03/28 05:19:42;;;;;;;844.30;770.10;;;3.60;99.90;;;;;;5060025;28;20944;-81
2022/03/28 05:22:08;;;;;;;845.07;768.80;;;3.60;99.90;;;;;;5055734;28;20439;-81
2022/03/28 05:24:36;;;;;;;861.40;787.23;;;3.70;99.90;;;;;;5045821;28;20481;-81
2022/03/28 05:27:03;;;;;;;849.17;775.67;;;3.80;99.90;;;;;;5040727;28;20476;-81
2022/03/28 05:29:30;;;;;;;839.87;769.57;;;3.70;99.90;;;;;;5040806;28;20451;-82
2022/03/28 05:31:57;;;;;;;809.17;744.93;;;3.80;99.90;;;;;;5045425;28;20470;-81
2022/03/28 05:34:23;;;;;;;811.40;750.23;;;3.80;99.90;;;;;;5060464;28;20467;-81
2022/03/28 05:36:52;;;;;;;833.67;770.73;;;3.70;99.90;;;;;;5052788;28;20457;-82
2022/03/28 05:39:19;;;;;;;806.47;745.60;;;3.50;99.90;;;;;;5050271;28;20454;-81
2022/03/28 05:41:45;;;;;;;799.80;740.33;;;3.50;99.90;;;;;;5047739;28;20451;-81
2022/03/28 05:44:14;;;;;;;814.67;751.57;;;3.50;99.90;;;;;;5056386;28;20466;-81
2022/03/28 05:46:48;;;;;;;828.70;765.63;;;3.60;99.90;;;;;;5048112;28;20471;-82
2022/03/28 05:49:14;;;;;;;809.63;746.27;;;3.50;99.90;;;;;;5041332;28;20448;-81
2022/03/28 05:51:41;;;;;;;837.07;768.53;;;3.50;99.90;;;;;;5052571;28;20456;-82
2022/03/28 05:54:10;;;;;;;831.33;761.83;;;3.60;99.90;;;;;;5053281;28;20471;-81
2022/03/28 05:56:36;;;;;;;839.17;767.47;;;3.60;99.90;;;;;;5051569;28;20456;-82
2022/03/28 05:59:03;;;;;;;833.73;762.47;;;3.60;99.90;;;;;;5043931;28;20452;-81
2022/03/28 06:01:30;;;;;;;843.53;768.03;;;3.70;99.90;;;;;;5047592;28;20951;-81
2022/03/28 06:03:57;;;;;;;839.83;762.87;;;4.00;99.90;;;;;;5051372;28;20482;-81
2022/03/28 06:06:24;;;;;;;842.90;766.73;;;4.10;99.90;;;;;;5054358;28;20487;-83
2022/03/28 06:08:50;;;;;;;841.60;766.93;;;4.10;99.90;;;;;;5046680;28;20479;-82
2022/03/28 06:11:18;;;;;;;835.10;759.27;;;4.20;99.90;;;;;;5061375;28;20459;-82
2022/03/28 06:13:45;;;;;;;844.10;770.93;;;4.30;99.90;;;;;;5059671;28;20479;-81
2022/03/28 06:16:12;;;;;;;842.20;769.67;;;4.30;99.90;;;;;;5051739;28;20546;-81
2022/03/28 06:18:39;;;;;;;842.73;770.50;;;4.50;99.90;;;;;;5046000;28;20960;-82
2022/03/28 06:21:07;;;;;;;831.87;761.87;;;4.50;99.90;;;;;;5051313;28;20999;-81
2022/03/28 06:23:34;;;;;;;836.03;768.13;;;4.60;99.90;;;;;;5047499;28;20562;-81
2022/03/28 06:26:01;;;;;;;828.83;762.57;;;4.70;99.90;;;;;;5054725;28;20481;-83
2022/03/28 06:28:29;;;;;;;820.90;757.60;;;4.80;99.90;;;;;;5055522;28;20925;-81
2022/03/28 06:30:57;;;;;;;830.27;766.30;;;4.80;99.90;;;;;;5055168;28;20452;-81
2022/03/28 06:33:24;;;;;;;819.30;756.43;;;5.00;99.90;;;;;;5040460;28;20464;-84
2022/03/28 06:35:52;;;;;;;814.33;750.87;;;5.10;99.90;;;;;;5046297;28;20448;-81
2022/03/28 06:38:19;;;;;;;807.90;747.07;;;5.10;99.90;;;;;;5043773;28;20543;-81
2022/03/28 06:40:46;;;;;;;807.00;747.70;;;5.30;99.90;;;;;;5045210;28;20452;-81
2022/03/28 06:43:13;;;;;;;810.50;751.00;;;5.30;99.90;;;;;;5042444;28;20573;-81
2022/03/28 06:45:41;;;;;;;801.37;742.97;;;5.30;99.90;;;;;;5048797;28;20448;-81
2022/03/28 06:48:08;;;;;;;803.47;745.87;;;5.50;99.90;;;;;;5054741;28;20452;-81
2022/03/28 06:50:38;;;;;;;822.50;762.90;;;5.60;99.90;;;;;;5048085;28;20924;-82
2022/03/28 06:53:05;;;;;;;809.67;751.07;;;5.70;99.90;;;;;;5043388;28;20555;-81
2022/03/28 06:55:31;;;;;;;806.30;746.47;;;6.00;99.90;;;;;;5048049;28;20447;-81
2022/03/28 06:57:58;;;;;;;795.13;737.10;;;6.00;99.90;;;;;;5053220;28;20474;-81
2022/03/28 07:00:25;;;;;;;788.70;732.00;;;6.20;99.90;;;;;;5046965;28;20451;-82
2022/03/28 07:02:53;;;;;;;799.00;741.57;;;6.40;99.90;;;;;;5039207;28;20494;-80
2022/03/28 07:05:19;;;;;;;783.97;728.77;;;6.60;99.90;;;;;;5050370;28;20447;-80
2022/03/28 07:07:47;;;;;;;800.23;744.13;;;6.70;99.90;;;;;;5049381;28;20479;-80
2022/03/28 07:10:16;;;;;;;813.77;755.67;;;6.80;99.90;;;;;;5038058;28;20483;-82
2022/03/28 07:12:43;;;;;;;802.80;748.10;;;7.00;99.90;;;;;;5056683;28;20474;-81
2022/03/28 07:15:11;;;;;;;653.80;618.90;;;7.10;99.90;;;;;;5056873;28;20846;-80
2022/03/28 07:17:51;;;;;;;477.87;455.43;;;7.30;99.90;;;;;;5055578;28;20443;-80
2022/03/28 07:20:21;;;;;;;533.20;508.00;;;7.40;99.90;;;;;;5046221;28;20441;-81
2022/03/28 07:22:48;;;;;;;501.57;478.47;;;7.40;99.90;;;;;;5058799;28;20493;-81
2022/03/28 07:25:15;;;;;;;547.83;521.53;;;7.50;99.90;;;;;;5058839;28;20831;-81
2022/03/28 07:27:43;;;;;;;585.87;557.67;;;7.70;99.90;;;;;;5057475;28;21057;-81
2022/03/28 07:30:11;;;;;;;476.57;453.63;;;7.80;99.90;;;;;;5057703;28;20447;-80
2022/03/28 07:32:39;;;;;;;442.17;421.83;;;7.90;99.90;;;;;;5058318;28;20473;-81
2022/03/28 07:35:07;;;;;;;433.00;413.83;;;8.00;99.90;;;;;;5057713;28;20447;-81
2022/03/28 07:37:37;;;;;;;404.87;386.53;;;8.00;99.90;;;;;;5057906;28;20455;-79
2022/03/28 07:40:06;;;;;;;383.80;366.40;;;8.30;99.90;;;;;;5045188;28;20544;-79
2022/03/28 07:42:33;;;;;;;325.00;310.37;;;8.40;99.90;;;;;;5039120;28;20518;-80
2022/03/28 07:45:03;;;;;;;324.83;310.43;;;8.60;99.90;;;;;;5039784;28;20456;-81
2022/03/28 07:47:30;;;;;;;312.80;298.60;;;8.70;99.90;;;;;;5040286;28;20849;-81
2022/03/28 07:50:02;;;;;;;268.53;255.90;;;8.70;99.90;;;;;;5053466;28;20451;-82
2022/03/28 07:52:29;;;;;;;286.30;273.10;;;8.80;99.90;;;;;;5039223;28;20552;-81
2022/03/28 07:54:58;;;;;;;154.03;144.33;;;9.00;99.90;;;;;;5038184;28;20194;-81
2022/03/28 07:57:25;;;;;;;177.97;167.80;;;9.10;99.90;;;;;;5037828;28;20453;-80
2022/03/28 07:59:54;;;;;;;146.77;137.27;;;9.30;99.90;;;;;;5037916;28;20452;-81
2022/03/28 08:02:20;;;;;;;146.60;137.10;;;9.40;99.90;;;;;;5036943;28;20459;-81
2022/03/28 08:04:47;;;;;;;102.70;95.03;;;9.60;99.90;;;;;;5037369;28;20462;-81
2022/03/28 08:07:15;;;;;;;78.60;71.03;;;9.70;99.90;;;;;;5036865;28;20480;-81
2022/03/28 08:09:42;;;;;;;75.23;67.93;;;10.10;99.90;;;;;;5037289;28;21067;-80
2022/03/28 08:12:11;;;;;;;76.97;69.90;;;10.20;99.90;;;;;;5037164;28;20453;-81
2022/03/28 08:14:38;;;;;;;60.40;51.80;;;10.30;99.90;;;;;;5037092;28;20476;-81
2022/03/28 08:17:05;;;;;;;52.00;42.83;;;10.60;99.90;;;;;;5037884;28;20941;-79
2022/03/28 08:19:32;;;;;;;52.37;34.10;;;10.80;99.20;;;;;;5036405;28;20449;-81
2022/03/28 08:21:59;;;;;;;52.53;32.10;;;11.10;95.50;;;;;;5037370;28;20456;-82
2022/03/28 08:24:26;;;;;;;50.13;31.70;;;11.50;92.80;;;;;;5037012;28;20476;-81
2022/03/28 08:26:52;;;;;;;54.27;30.87;;;11.90;91.70;;;;;;5037067;28;20476;-81
2022/03/28 08:29:21;;;;;;;50.53;32.83;;;12.40;90.00;;;;;;5036360;28;20460;-81
2022/03/28 08:31:48;;;;;;;44.87;30.17;;;12.60;85.40;;;;;;5036232;28;20449;-81
2022/03/28 08:34:18;;;;;;;52.30;28.90;;;13.10;81.90;;;;;;5037357;28;20896;-81
2022/03/28 08:36:45;;;;;;;47.20;31.63;;;13.40;77.60;;;;;;5037167;28;20455;-81
2022/03/28 08:39:12;;;;;;;48.57;33.53;;;13.60;75.10;;;;;;5037141;28;20465;-81
2022/03/28 08:41:38;;;;;;;45.20;29.80;;;14.10;72.40;;;;;;5037192;28;20462;-82
2022/03/28 08:44:06;;;;;;;42.90;29.93;;;14.40;66.60;;;;;;5036704;28;20479;-82
2022/03/28 08:46:35;;;;;;;46.60;32.40;;;14.70;65.30;;;;;;5037500;28;20487;-81
2022/03/28 08:49:01;;;;;;;42.60;30.73;;;15.00;61.50;;;;;;5037061;28;20506;-82
2022/03/28 08:51:28;;;;;;;48.03;32.90;;;15.50;57.50;;;;;;5037018;28;20461;-81
2022/03/28 08:53:56;;;;;;;48.80;31.13;;;15.60;53.80;;;;;;5037674;28;20815;-81
2022/03/28 08:56:23;;;;;;;46.40;30.00;;;15.80;53.80;;;;;;5037381;28;20453;-82
2022/03/28 08:58:50;;;;;;;51.23;31.97;;;15.90;53.60;;;;;;5037527;28;20466;-82
2022/03/28 09:01:17;;;;;;;45.60;29.50;;;16.30;52.00;;;;;;5037516;28;20450;-82
2022/03/28 09:03:47;;;;;;;42.67;29.63;;;16.80;51.10;;;;;;5036877;28;20473;-82
2022/03/28 09:06:34;;;;;;;40.90;30.20;;;17.00;47.00;;;;;;5037684;28;20502;-83
2022/03/28 09:09:12;;;;;;;43.17;30.00;;;17.50;45.00;;;;;;5036900;28;20453;-82
2022/03/28 09:11:40;;;;;;;48.67;29.80;;;17.60;43.70;;;;;;5038096;28;20497;-82
2022/03/28 09:14:14;;;;;;;46.67;30.83;;;18.10;42.60;;;;;;5037046;28;20485;-82
2022/03/28 09:16:41;;;;;;;47.60;31.40;;;18.50;37.70;;;;;;5037696;28;20439;-82
2022/03/28 09:19:12;;;;;;;41.83;31.27;;;18.70;36.00;;;;;;5037324;28;20482;-82
2022/03/28 09:21:39;;;;;;;38.13;29.07;;;18.40;33.80;;;;;;5037556;28;20439;-81
2022/03/28 09:24:10;;;;;;;44.37;30.80;;;18.50;33.90;;;;;;5037463;28;20479;-82
2022/03/28 09:26:37;;;;;;;36.67;29.17;;;18.40;33.80;;;;;;5037425;28;20871;-82
2022/03/28 09:29:06;;;;;;;49.77;29.73;;;18.80;34.20;;;;;;5037218;28;20458;-81
2022/03/28 09:31:36;;;;;;;41.00;29.77;;;19.10;30.20;;;;;;5037170;28;20464;-82
2022/03/28 09:34:09;;;;;;;43.03;30.37;;;18.90;29.90;;;;;;5036988;28;20488;-82
2022/03/28 09:36:55;;;;;;;37.90;30.03;;;19.50;29.10;;;;;;5036186;28;20451;-81
2022/03/28 09:39:23;;;;;;;41.00;30.00;;;20.00;27.00;;;;;;5036286;28;20441;-79
2022/03/28 09:42:01;;;;;;;41.40;30.50;;;20.30;25.20;;;;;;5036648;28;20464;-80
2022/03/28 09:44:35;;;;;;;42.07;29.50;;;20.30;23.40;;;;;;5036072;28;20571;-80
2022/03/28 09:47:10;;;;;;;42.67;31.87;;;20.30;23.50;;;;;;5039554;28;20486;-80
2022/03/28 09:49:39;;;;;;;41.97;31.63;;;20.50;23.80;;;;;;5046155;28;20450;-81
2022/03/28 09:52:12;;;;;;;44.73;29.73;;;20.10;24.00;;;;;;5049355;28;20955;-81
2022/03/28 09:54:51;;;;;;;38.20;28.97;;;20.10;23.00;;;;;;5050202;28;20550;-83
2022/03/28 09:57:20;;;;;;;38.33;29.70;;;21.00;22.00;;;;;;5048194;28;20521;-80
2022/03/28 09:59:51;;;;;;;36.40;27.00;;;21.50;20.80;;;;;;5048934;28;20476;-81
2022/03/28 10:02:21;;;;;;;37.20;28.77;;;21.40;16.70;;;;;;5043169;28;20456;-80
2022/03/28 10:04:50;;;;;;;37.80;29.00;;;21.00;19.10;;;;;;5042400;28;20455;-81
2022/03/28 10:07:19;;;;;;;41.70;30.40;;;20.10;19.80;;;;;;5045374;28;20483;-81
2022/03/28 10:09:47;;;;;;;37.97;31.77;;;20.30;19.90;;;;;;5044681;28;20468;-82
2022/03/28 10:12:14;;;;;;;40.30;28.80;;;20.00;22.80;;;;;;5045295;28;20459;-82
2022/03/28 10:21:32;;;;;;;42.30;30.30;;;20.70;18.50;;;;;;4981250;28;20471;-83
2022/03/28 10:24:05;;;;;;;39.23;29.17;;;21.00;18.00;;;;;;5043266;28;20478;-83
2022/03/28 10:26:35;;;;;;;37.33;28.47;;;21.30;18.20;;;;;;5044468;28;20984;-83
2022/03/28 10:29:07;;;;;;;39.30;29.53;;;21.20;16.90;;;;;;5049152;28;20419;-82
2022/03/28 10:31:37;;;;;;;39.30;29.70;;;21.30;16.10;;;;;;5048229;28;20535;-82
2022/03/28 10:34:04;;;;;;;46.17;33.67;;;20.80;15.60;;;;;;5049967;28;20543;-81
2022/03/28 10:36:32;;;;;;;38.67;29.97;;;21.50;16.60;;;;;;5048655;28;20452;-82
2022/03/28 10:39:33;;;;;;;39.77;31.43;;;22.60;12.40;;;;;;5048422;28;20519;-81
2022/03/28 10:42:19;;;;;;;41.17;31.83;;;22.20;12.10;;;;;;5049660;28;20456;-81
2022/03/28 10:44:48;;;;;;;39.57;30.50;;;21.80;11.50;;;;;;5049442;28;20479;-82
2022/03/28 10:47:15;;;;;;;41.20;29.70;;;21.80;13.60;;;;;;5045250;28;20819;-80
2022/03/28 10:49:45;;;;;;;41.20;29.60;;;21.90;10.00;;;;;;5039424;28;20452;-81
2022/03/28 10:52:28;;;;;;;36.87;28.80;;;22.70;8.60;;;;;;5041506;28;20476;-82
2022/03/28 10:54:56;;;;;;;37.10;28.77;;;23.20;7.90;;;;;;5037839;28;20493;-81
2022/03/28 10:57:28;;;;;;;38.77;30.73;;;22.90;6.60;;;;;;5038424;28;20845;-81
2022/03/28 11:00:05;;;;;;;37.43;29.10;;;23.40;5.20;;;;;;5037038;28;20452;-81
2022/03/28 11:02:32;;;;;;;34.30;28.37;;;23.50;4.50;;;;;;5037598;28;20499;-80
2022/03/28 11:05:13;;;;;;;48.40;29.60;;;22.40;6.30;;;;;;5046820;23;20484;-84
2022/03/28 11:07:50;;;;;;;34.00;26.53;;;22.30;7.30;;;;;;5021539;28;20916;-84
2022/03/28 11:10:21;;;;;;;35.67;29.03;;;22.70;6.40;;;;;;5022465;28;20427;-84
2022/03/28 11:12:51;;;;;;;34.30;27.60;;;23.50;3.10;;;;;;5021776;28;20471;-84
2022/03/28 11:15:19;;;;;;;37.93;28.37;;;23.30;1.10;;;;;;5020574;28;20508;-84
2022/03/28 11:17:56;;;;;;;40.50;29.30;;;23.70;1.30;;;;;;5020692;28;20483;-84
2022/03/28 11:20:23;;;;;;;38.23;28.00;;;24.90;1.00;;;;;;5021259;28;20461;-84
2022/03/28 11:22:57;;;;;;;35.60;26.70;;;23.50;1.00;;;;;;5021452;28;20457;-84
2022/03/28 11:25:47;;;;;;;38.23;27.77;;;23.20;2.10;;;;;;5021252;28;20444;-84
2022/03/28 11:28:20;;;;;;;31.33;25.27;;;23.50;1.40;;;;;;5021325;28;20456;-84
2022/03/28 11:30:52;;;;;;;30.10;26.33;;;23.00;1.00;;;;;;5021934;28;20452;-84
2022/03/28 11:33:21;;;;;;;32.83;26.30;;;24.20;1.00;;;;;;5021119;28;20849;-84
2022/03/28 11:35:54;;;;;;;33.33;25.87;;;24.00;1.00;;;;;;5020845;28;20945;-84
2022/03/28 11:38:22;;;;;;;35.53;26.23;;;23.50;1.00;;;;;;5021411;28;20484;-84
2022/03/28 11:40:50;;;;;;;33.83;26.30;;;24.20;1.00;;;;;;5022047;28;20460;-85
2022/03/28 11:43:18;;;;;;;36.13;27.30;;;24.30;1.00;;;;;;5021593;28;20509;-84
2022/03/28 11:45:49;;;;;;;30.10;24.27;;;24.70;1.00;;;;;;5020663;28;20520;-85
2022/03/28 11:48:18;;;;;;;32.10;26.23;;;24.30;1.00;;;;;;5021067;28;20456;-84
2022/03/28 11:50:46;;;;;;;31.07;23.87;;;25.30;1.00;;;;;;5020676;28;20455;-85
2022/03/28 11:53:14;;;;;;;37.27;26.50;;;24.50;1.00;;;;;;5021110;28;20453;-85
2022/03/28 11:55:53;;;;;;;34.73;26.60;;;25.20;1.00;;;;;;5020951;28;20456;-85
2022/03/28 11:58:29;;;;;;;32.50;25.17;;;24.50;1.00;;;;;;5020671;28;20863;-84
2022/03/28 12:01:07;;;;;;;36.63;26.40;;;23.70;1.00;;;;;;5021644;28;20457;-85
2022/03/28 12:03:34;;;;;;;31.03;26.67;;;23.80;1.00;;;;;;5021589;28;20485;-84
2022/03/28 12:06:00;;;;;;;30.60;23.87;;;25.00;1.00;;;;;;5020321;28;20456;-84
2022/03/28 12:08:29;;;;;;;30.63;24.70;;;24.70;1.00;;;;;;5020322;28;20961;-84
2022/03/28 12:10:57;;;;;;;31.20;27.63;;;23.90;1.00;;;;;;5021759;28;20464;-84
2022/03/28 12:13:25;;;;;;;31.90;28.33;;;24.10;1.00;;;;;;5020767;28;20476;-85
2022/03/28 12:15:54;;;;;;;35.33;27.57;;;24.70;1.00;;;;;;5020941;28;20460;-84
2022/03/28 12:18:22;;;;;;;38.20;28.50;;;23.80;1.00;;;;;;5020812;28;20477;-84
2022/03/28 12:20:51;;;;;;;34.30;27.47;;;23.40;1.00;;;;;;5020693;28;20537;-85
2022/03/28 12:23:20;;;;;;;35.90;28.27;;;24.10;1.00;;;;;;5021180;28;20473;-84
2022/03/28 12:25:48;;;;;;;33.23;27.60;;;25.30;1.00;;;;;;5020525;28;20457;-84
2022/03/28 12:28:18;;;;;;;33.53;26.40;;;26.10;1.00;;;;;;5020206;28;20453;-84
2022/03/28 12:30:47;;;;;;;33.87;27.07;;;26.60;1.00;;;;;;5020964;28;20453;-84
2022/03/28 12:33:17;;;;;;;31.57;25.40;;;25.40;1.00;;;;;;5020597;28;20941;-84
2022/03/28 12:35:46;;;;;;;26.57;23.40;;;24.90;1.00;;;;;;5020076;28;20463;-84
2022/03/28 12:38:20;;;;;;;44.43;26.40;;;24.80;1.00;;;;;;5020037;28;20557;-84
2022/03/28 12:40:51;;;;;;;31.67;27.00;;;24.20;1.00;;;;;;5020837;28;20484;-84
2022/03/28 12:43:20;;;;;;;31.60;24.87;;;24.10;1.00;;;;;;5021009;28;20469;-84